Search for airport 
image banner adimage banner adimage banner ad
image banner ad

CL37 - Enloe Hospital

Located in Chico, United States

ICAO - CL37, IATA -

Data provided by Airmate  

General information

Coordinates: N39°44'31" W121°51'1"
Elevation is 253 feet MSL.
Magnetic variation is 17° East
View others Airports in California

Operational data

Special qualification required
Current time UTC:
Current local time:
Weather at : KCIC - Chico Muni ( 6 km )
METAR: KCIC 141215Z AUTO 14017G20KT 10SM CLR 19/13 A2995 RMK AO1
View NOTAMs / SUP AIP / TFR affecting this airport [VIEW]
Communications frequencies: [VIEW]

Runways:

Airport contact information

Address: Chico United States

Satellite view of CL37